Main page
METAR-TAF:

METAR-TAF

Airports :

Leeds Bradford, England

Leeds Bradford Airport

latitude: 53-52N, longitude: 001-39W, elevation: 208 m

Current weather observation

The report was made 36 minutes ago, at 16:50 UTC
Wind 2 kt from variable directions
Temperature 17°C
Humidity 68%
Pressure 1013 hPa
Visibility 10 km or more
no clouds below 1500 m and no cumulonimbus

METAR: EGNM 261650Z VRB02KT CAVOK 17/11 Q1013

Time: 18:26 (17:26 UTC)

Forecast

The report was made 6 hours and 26 minutes ago, at 11:00 UTC
Forecast valid from 26 at 12 UTC to 27 at 12 UTC
Wind 4 kt from variable directions
Visibility 10 km or more
Scattered clouds at a height of 4000 ft
Becoming
from 26 at 21 UTC to 26 at 24 UTC
Wind 10 kt from the East/Southeast
Probability 40% :
Temporary
from 27 at 03 UTC to 27 at 12 UTC
Visibility: 7000 m
Broken clouds at a height of 1000 ft
rain

TAF: EGNM 261100Z 2612/2712 VRB04KT 9999 SCT040 BECMG 2621/2624 12010KT PROB40 TEMPO 2703/2712 7000 RA BKN010

Weather observations and forecasts of more than 4000 airports (METAR and TAF reports).

The available stations are represented by yellow and red dots on the map.

Hover mouse over dot to see the name of the station.

Then click to see weather observations and forecasts.

To change the map : click on the green buttons with a black cross to zoom in, on the green button with a dash to zoom out, or on the green arrows for adjacent maps.


METAR-TAF: